sensor_id;sensor_type;location;lat;lon;timestamp;temperature;humidity
4431;DHT22;2228;48.140;11.488;2023-01-24T00:00:35;2.30;1.00
4431;DHT22;2228;48.140;11.488;2023-01-24T00:03:04;2.30;1.00
4431;DHT22;2228;48.140;11.488;2023-01-24T00:05:33;2.30;1.00
4431;DHT22;2228;48.140;11.488;2023-01-24T00:08:00;2.30;1.00
4431;DHT22;2228;48.140;11.488;2023-01-24T00:10:27;2.30;1.00
4431;DHT22;2228;48.140;11.488;2023-01-24T00:12:54;2.40;1.00
4431;DHT22;2228;48.140;11.488;2023-01-24T00:15:21;2.30;1.00
4431;DHT22;2228;48.140;11.488;2023-01-24T00:17:48;2.30;1.00
4431;DHT22;2228;48.140;11.488;2023-01-24T00:20:17;2.30;1.00
4431;DHT22;2228;48.140;11.488;2023-01-24T00:22:44;2.40;1.00
4431;DHT22;2228;48.140;11.488;2023-01-24T00:25:11;2.40;1.00
4431;DHT22;2228;48.140;11.488;2023-01-24T00:27:38;2.40;1.00
4431;DHT22;2228;48.140;11.488;2023-01-24T00:30:06;2.30;1.00
4431;DHT22;2228;48.140;11.488;2023-01-24T00:32:33;2.30;1.00
4431;DHT22;2228;48.140;11.488;2023-01-24T00:35:00;2.30;1.00
4431;DHT22;2228;48.140;11.488;2023-01-24T00:37:28;2.40;1.00
4431;DHT22;2228;48.140;11.488;2023-01-24T00:39:55;2.30;1.00
4431;DHT22;2228;48.140;11.488;2023-01-24T00:42:22;2.40;1.00
4431;DHT22;2228;48.140;11.488;2023-01-24T00:44:49;2.40;1.00
4431;DHT22;2228;48.140;11.488;2023-01-24T00:47:16;2.40;1.00
4431;DHT22;2228;48.140;11.488;2023-01-24T00:49:43;2.40;1.00
4431;DHT22;2228;48.140;11.488;2023-01-24T00:52:10;2.40;1.00
4431;DHT22;2228;48.140;11.488;2023-01-24T00:54:39;2.40;1.00
4431;DHT22;2228;48.140;11.488;2023-01-24T00:57:06;2.30;1.00
4431;DHT22;2228;48.140;11.488;2023-01-24T00:59:33;2.30;1.00
4431;DHT22;2228;48.140;11.488;2023-01-24T01:01:59;2.30;1.00
4431;DHT22;2228;48.140;11.488;2023-01-24T01:04:27;2.30;1.00
4431;DHT22;2228;48.140;11.488;2023-01-24T01:06:54;2.30;1.00
4431;DHT22;2228;48.140;11.488;2023-01-24T01:09:20;2.20;1.00
4431;DHT22;2228;48.140;11.488;2023-01-24T01:11:49;2.30;1.00
4431;DHT22;2228;48.140;11.488;2023-01-24T01:14:16;2.30;1.00
4431;DHT22;2228;48.140;11.488;2023-01-24T01:16:43;2.30;1.00
4431;DHT22;2228;48.140;11.488;2023-01-24T01:19:10;2.30;1.00
4431;DHT22;2228;48.140;11.488;2023-01-24T01:21:36;2.30;1.00
4431;DHT22;2228;48.140;11.488;2023-01-24T01:24:04;2.30;1.00
4431;DHT22;2228;48.140;11.488;2023-01-24T01:26:31;2.30;1.00
4431;DHT22;2228;48.140;11.488;2023-01-24T01:28:59;2.30;1.00
4431;DHT22;2228;48.140;11.488;2023-01-24T01:31:27;2.30;1.00
4431;DHT22;2228;48.140;11.488;2023-01-24T01:33:54;2.30;1.00
4431;DHT22;2228;48.140;11.488;2023-01-24T01:36:21;2.40;1.00
4431;DHT22;2228;48.140;11.488;2023-01-24T01:38:47;2.40;1.00
4431;DHT22;2228;48.140;11.488;2023-01-24T01:41:15;2.40;1.00
4431;DHT22;2228;48.140;11.488;2023-01-24T01:43:42;2.50;1.00
4431;DHT22;2228;48.140;11.488;2023-01-24T01:46:26;2.50;1.00
4431;DHT22;2228;48.140;11.488;2023-01-24T01:48:58;2.50;1.00
4431;DHT22;2228;48.140;11.488;2023-01-24T01:51:31;2.40;1.00
4431;DHT22;2228;48.140;11.488;2023-01-24T01:54:01;2.40;1.00
4431;DHT22;2228;48.140;11.488;2023-01-24T01:56:33;2.40;1.00
4431;DHT22;2228;48.140;11.488;2023-01-24T01:59:05;2.40;1.00
4431;DHT22;2228;48.140;11.488;2023-01-24T02:01:36;2.30;1.00
4431;DHT22;2228;48.140;11.488;2023-01-24T02:04:07;2.30;1.00
4431;DHT22;2228;48.140;11.488;2023-01-24T02:06:43;2.40;1.00
4431;DHT22;2228;48.140;11.488;2023-01-24T02:09:14;2.40;1.00
4431;DHT22;2228;48.140;11.488;2023-01-24T02:11:43;2.30;1.00
4431;DHT22;2228;48.140;11.488;2023-01-24T02:14:12;2.30;1.00
4431;DHT22;2228;48.140;11.488;2023-01-24T02:16:57;2.30;1.00
4431;DHT22;2228;48.140;11.488;2023-01-24T02:19:47;2.30;1.00
4431;DHT22;2228;48.140;11.488;2023-01-24T02:22:22;2.30;1.00
4431;DHT22;2228;48.140;11.488;2023-01-24T02:25:03;2.30;1.00
4431;DHT22;2228;48.140;11.488;2023-01-24T02:27:34;2.30;1.00
4431;DHT22;2228;48.140;11.488;2023-01-24T02:30:01;2.30;1.00
4431;DHT22;2228;48.140;11.488;2023-01-24T02:32:28;2.30;1.00
4431;DHT22;2228;48.140;11.488;2023-01-24T02:34:55;2.30;1.00
4431;DHT22;2228;48.140;11.488;2023-01-24T02:37:23;2.30;1.00
4431;DHT22;2228;48.140;11.488;2023-01-24T02:39:56;2.20;1.00
4431;DHT22;2228;48.140;11.488;2023-01-24T02:42:27;2.30;1.00
4431;DHT22;2228;48.140;11.488;2023-01-24T02:45:02;2.30;1.00
4431;DHT22;2228;48.140;11.488;2023-01-24T02:47:33;2.30;1.00
4431;DHT22;2228;48.140;11.488;2023-01-24T02:50:02;2.30;1.00
4431;DHT22;2228;48.140;11.488;2023-01-24T02:52:29;2.30;1.00
4431;DHT22;2228;48.140;11.488;2023-01-24T02:55:14;2.30;1.00
4431;DHT22;2228;48.140;11.488;2023-01-24T02:57:41;2.30;1.30
4431;DHT22;2228;48.140;11.488;2023-01-24T03:00:26;2.30;1.00
4431;DHT22;2228;48.140;11.488;2023-01-24T03:02:53;2.30;1.00
4431;DHT22;2228;48.140;11.488;2023-01-24T03:05:20;2.40;1.00
4431;DHT22;2228;48.140;11.488;2023-01-24T03:07:47;2.30;1.00
4431;DHT22;2228;48.140;11.488;2023-01-24T03:10:16;2.30;1.00
4431;DHT22;2228;48.140;11.488;2023-01-24T03:12:44;2.30;1.00
4431;DHT22;2228;48.140;11.488;2023-01-24T03:15:30;2.20;1.00
4431;DHT22;2228;48.140;11.488;2023-01-24T03:18:15;2.20;29.00
4431;DHT22;2228;48.140;11.488;2023-01-24T03:21:00;2.20;1.00
4431;DHT22;2228;48.140;11.488;2023-01-24T03:23:44;2.30;1.00
4431;DHT22;2228;48.140;11.488;2023-01-24T03:26:28;2.30;15.50
4431;DHT22;2228;48.140;11.488;2023-01-24T03:29:12;2.40;1.00
4431;DHT22;2228;48.140;11.488;2023-01-24T03:31:58;2.40;1.00
4431;DHT22;2228;48.140;11.488;2023-01-24T03:34:42;2.40;1.00
4431;DHT22;2228;48.140;11.488;2023-01-24T03:37:16;2.40;1.00
4431;DHT22;2228;48.140;11.488;2023-01-24T03:40:04;2.30;1.00
4431;DHT22;2228;48.140;11.488;2023-01-24T03:42:32;2.30;1.00
4431;DHT22;2228;48.140;11.488;2023-01-24T03:45:00;2.40;1.00
4431;DHT22;2228;48.140;11.488;2023-01-24T03:47:28;2.30;1.00
4431;DHT22;2228;48.140;11.488;2023-01-24T03:49:55;2.30;1.00
4431;DHT22;2228;48.140;11.488;2023-01-24T03:52:39;2.30;1.00
4431;DHT22;2228;48.140;11.488;2023-01-24T03:55:07;2.30;1.00
4431;DHT22;2228;48.140;11.488;2023-01-24T03:57:33;2.30;33.20
4431;DHT22;2228;48.140;11.488;2023-01-24T04:00:00;2.40;1.00
4431;DHT22;2228;48.140;11.488;2023-01-24T04:02:29;2.40;1.00
4431;DHT22;2228;48.140;11.488;2023-01-24T04:04:56;2.40;1.00
4431;DHT22;2228;48.140;11.488;2023-01-24T04:07:41;2.40;1.00
4431;DHT22;2228;48.140;11.488;2023-01-24T04:10:09;2.40;1.00
4431;DHT22;2228;48.140;11.488;2023-01-24T04:12:36;2.40;1.00
4431;DHT22;2228;48.140;11.488;2023-01-24T04:15:04;2.40;13.20
4431;DHT22;2228;48.140;11.488;2023-01-24T04:17:33;2.50;1.00
4431;DHT22;2228;48.140;11.488;2023-01-24T04:20:00;2.50;1.00
4431;DHT22;2228;48.140;11.488;2023-01-24T04:22:27;2.50;1.00
4431;DHT22;2228;48.140;11.488;2023-01-24T04:24:54;2.50;1.00
4431;DHT22;2228;48.140;11.488;2023-01-24T04:27:20;2.50;1.00
4431;DHT22;2228;48.140;11.488;2023-01-24T04:29:47;2.60;1.00
4431;DHT22;2228;48.140;11.488;2023-01-24T04:32:14;2.50;1.00
4431;DHT22;2228;48.140;11.488;2023-01-24T04:34:43;2.40;1.00
4431;DHT22;2228;48.140;11.488;2023-01-24T04:37:10;2.30;1.00
4431;DHT22;2228;48.140;11.488;2023-01-24T04:39:37;2.30;1.00
4431;DHT22;2228;48.140;11.488;2023-01-24T04:42:04;2.20;1.00
4431;DHT22;2228;48.140;11.488;2023-01-24T04:44:31;2.30;1.00
4431;DHT22;2228;48.140;11.488;2023-01-24T04:46:59;2.30;1.00
4431;DHT22;2228;48.140;11.488;2023-01-24T04:49:27;2.30;1.00
4431;DHT22;2228;48.140;11.488;2023-01-24T04:51:55;2.30;1.00
4431;DHT22;2228;48.140;11.488;2023-01-24T04:54:22;2.30;1.00
4431;DHT22;2228;48.140;11.488;2023-01-24T04:56:49;2.30;40.90
4431;DHT22;2228;48.140;11.488;2023-01-24T04:59:16;2.30;29.10
4431;DHT22;2228;48.140;11.488;2023-01-24T05:01:43;2.30;1.00
4431;DHT22;2228;48.140;11.488;2023-01-24T05:04:10;2.30;20.10
4431;DHT22;2228;48.140;11.488;2023-01-24T05:06:37;2.30;1.00
4431;DHT22;2228;48.140;11.488;2023-01-24T05:09:05;2.40;1.00
4431;DHT22;2228;48.140;11.488;2023-01-24T05:11:32;2.30;1.00
4431;DHT22;2228;48.140;11.488;2023-01-24T05:14:01;2.30;91.20
4431;DHT22;2228;48.140;11.488;2023-01-24T05:16:28;2.30;54.90
4431;DHT22;2228;48.140;11.488;2023-01-24T05:18:55;2.40;29.00
4431;DHT22;2228;48.140;11.488;2023-01-24T05:21:22;2.30;15.20
4431;DHT22;2228;48.140;11.488;2023-01-24T05:23:50;2.40;14.30
4431;DHT22;2228;48.140;11.488;2023-01-24T05:26:19;2.30;6.20
4431;DHT22;2228;48.140;11.488;2023-01-24T05:28:47;2.40;33.60
4431;DHT22;2228;48.140;11.488;2023-01-24T05:31:14;2.30;17.50
4431;DHT22;2228;48.140;11.488;2023-01-24T05:33:42;2.30;61.90
4431;DHT22;2228;48.140;11.488;2023-01-24T05:36:11;2.40;64.50
4431;DHT22;2228;48.140;11.488;2023-01-24T05:38:38;2.40;9.80
4431;DHT22;2228;48.140;11.488;2023-01-24T05:41:07;2.40;60.80
4431;DHT22;2228;48.140;11.488;2023-01-24T05:43:36;2.40;18.10
4431;DHT22;2228;48.140;11.488;2023-01-24T05:46:06;2.50;21.80
4431;DHT22;2228;48.140;11.488;2023-01-24T05:48:35;2.50;1.00
4431;DHT22;2228;48.140;11.488;2023-01-24T05:51:04;2.50;22.60
4431;DHT22;2228;48.140;11.488;2023-01-24T05:53:32;2.50;1.00
4431;DHT22;2228;48.140;11.488;2023-01-24T05:56:02;2.50;37.40
4431;DHT22;2228;48.140;11.488;2023-01-24T05:58:32;2.40;1.00
4431;DHT22;2228;48.140;11.488;2023-01-24T06:01:05;2.40;99.90
4431;DHT22;2228;48.140;11.488;2023-01-24T06:03:32;2.50;1.00
4431;DHT22;2228;48.140;11.488;2023-01-24T06:05:59;2.40;16.20
4431;DHT22;2228;48.140;11.488;2023-01-24T06:08:26;2.50;61.50
4431;DHT22;2228;48.140;11.488;2023-01-24T06:10:53;2.50;12.50
4431;DHT22;2228;48.140;11.488;2023-01-24T06:13:22;2.50;5.90
4431;DHT22;2228;48.140;11.488;2023-01-24T06:15:49;2.50;27.70
4431;DHT22;2228;48.140;11.488;2023-01-24T06:18:18;2.50;2.80
4431;DHT22;2228;48.140;11.488;2023-01-24T06:20:45;2.50;1.00
4431;DHT22;2228;48.140;11.488;2023-01-24T06:23:25;2.40;1.00
4431;DHT22;2228;48.140;11.488;2023-01-24T06:25:53;2.40;32.20
4431;DHT22;2228;48.140;11.488;2023-01-24T06:28:20;2.40;54.60
4431;DHT22;2228;48.140;11.488;2023-01-24T06:30:57;2.50;61.00
4431;DHT22;2228;48.140;11.488;2023-01-24T06:33:35;2.40;1.00
4431;DHT22;2228;48.140;11.488;2023-01-24T06:36:26;2.40;73.80
4431;DHT22;2228;48.140;11.488;2023-01-24T06:38:58;2.40;99.90
4431;DHT22;2228;48.140;11.488;2023-01-24T06:41:25;2.40;53.40
4431;DHT22;2228;48.140;11.488;2023-01-24T06:43:53;2.40;84.10
4431;DHT22;2228;48.140;11.488;2023-01-24T06:46:20;2.40;99.90
4431;DHT22;2228;48.140;11.488;2023-01-24T06:48:49;2.40;90.80
4431;DHT22;2228;48.140;11.488;2023-01-24T06:51:16;2.50;96.80
4431;DHT22;2228;48.140;11.488;2023-01-24T06:53:43;2.50;11.00
4431;DHT22;2228;48.140;11.488;2023-01-24T06:56:10;2.50;32.70
4431;DHT22;2228;48.140;11.488;2023-01-24T06:58:38;2.50;43.70
4431;DHT22;2228;48.140;11.488;2023-01-24T07:01:05;2.60;49.00
4431;DHT22;2228;48.140;11.488;2023-01-24T07:03:32;2.60;15.20
4431;DHT22;2228;48.140;11.488;2023-01-24T07:06:02;2.60;1.00
4431;DHT22;2228;48.140;11.488;2023-01-24T07:08:32;2.70;37.10
4431;DHT22;2228;48.140;11.488;2023-01-24T07:10:59;2.70;2.10
4431;DHT22;2228;48.140;11.488;2023-01-24T07:13:27;2.60;1.00
4431;DHT22;2228;48.140;11.488;2023-01-24T07:15:54;2.60;1.00
4431;DHT22;2228;48.140;11.488;2023-01-24T07:18:21;2.60;1.00
4431;DHT22;2228;48.140;11.488;2023-01-24T07:20:49;2.50;1.00
4431;DHT22;2228;48.140;11.488;2023-01-24T07:23:23;2.40;1.00
4431;DHT22;2228;48.140;11.488;2023-01-24T07:25:54;2.40;36.40
4431;DHT22;2228;48.140;11.488;2023-01-24T07:28:21;2.50;9.00
4431;DHT22;2228;48.140;11.488;2023-01-24T07:30:49;2.50;23.40
4431;DHT22;2228;48.140;11.488;2023-01-24T07:33:18;2.50;56.00
4431;DHT22;2228;48.140;11.488;2023-01-24T07:35:45;2.50;60.20
4431;DHT22;2228;48.140;11.488;2023-01-24T07:38:12;2.60;35.10
4431;DHT22;2228;48.140;11.488;2023-01-24T07:40:40;2.60;50.30
4431;DHT22;2228;48.140;11.488;2023-01-24T07:43:08;2.60;51.90
4431;DHT22;2228;48.140;11.488;2023-01-24T07:45:35;2.60;38.50
4431;DHT22;2228;48.140;11.488;2023-01-24T07:48:04;2.60;1.00
4431;DHT22;2228;48.140;11.488;2023-01-24T07:50:32;2.70;6.80
4431;DHT22;2228;48.140;11.488;2023-01-24T07:53:00;2.70;1.00
4431;DHT22;2228;48.140;11.488;2023-01-24T07:55:27;2.70;10.70
4431;DHT22;2228;48.140;11.488;2023-01-24T07:58:00;2.80;1.00
4431;DHT22;2228;48.140;11.488;2023-01-24T08:00:28;2.70;1.00
4431;DHT22;2228;48.140;11.488;2023-01-24T08:02:55;2.70;1.00
4431;DHT22;2228;48.140;11.488;2023-01-24T08:05:24;2.70;22.60
4431;DHT22;2228;48.140;11.488;2023-01-24T08:07:53;2.70;1.00
4431;DHT22;2228;48.140;11.488;2023-01-24T08:10:20;2.80;1.00
4431;DHT22;2228;48.140;11.488;2023-01-24T08:12:48;2.80;1.00
4431;DHT22;2228;48.140;11.488;2023-01-24T08:15:21;2.80;1.00
4431;DHT22;2228;48.140;11.488;2023-01-24T08:17:48;2.80;1.00
4431;DHT22;2228;48.140;11.488;2023-01-24T08:20:15;2.80;1.00
4431;DHT22;2228;48.140;11.488;2023-01-24T08:22:42;2.70;1.00
4431;DHT22;2228;48.140;11.488;2023-01-24T08:25:09;2.70;9.50
4431;DHT22;2228;48.140;11.488;2023-01-24T08:27:39;2.70;27.10
4431;DHT22;2228;48.140;11.488;2023-01-24T08:30:07;2.70;13.60
4431;DHT22;2228;48.140;11.488;2023-01-24T08:32:37;2.70;1.00
4431;DHT22;2228;48.140;11.488;2023-01-24T08:35:05;2.80;1.00
4431;DHT22;2228;48.140;11.488;2023-01-24T08:37:32;2.80;8.90
4431;DHT22;2228;48.140;11.488;2023-01-24T08:39:59;2.80;1.00
4431;DHT22;2228;48.140;11.488;2023-01-24T08:42:26;2.90;14.50
4431;DHT22;2228;48.140;11.488;2023-01-24T08:44:53;3.00;1.00
4431;DHT22;2228;48.140;11.488;2023-01-24T08:47:20;3.00;1.00
4431;DHT22;2228;48.140;11.488;2023-01-24T08:49:48;3.00;1.00
4431;DHT22;2228;48.140;11.488;2023-01-24T08:52:16;3.00;1.00
4431;DHT22;2228;48.140;11.488;2023-01-24T08:54:42;2.90;1.00
4431;DHT22;2228;48.140;11.488;2023-01-24T08:57:09;2.90;1.00
4431;DHT22;2228;48.140;11.488;2023-01-24T08:59:36;2.90;1.00
4431;DHT22;2228;48.140;11.488;2023-01-24T09:02:04;3.00;1.00
4431;DHT22;2228;48.140;11.488;2023-01-24T09:04:31;3.00;1.00
4431;DHT22;2228;48.140;11.488;2023-01-24T09:06:59;2.90;1.00
4431;DHT22;2228;48.140;11.488;2023-01-24T09:09:26;2.90;1.00
4431;DHT22;2228;48.140;11.488;2023-01-24T09:11:53;3.00;1.00
4431;DHT22;2228;48.140;11.488;2023-01-24T09:14:20;3.00;1.00
4431;DHT22;2228;48.140;11.488;2023-01-24T09:16:47;3.00;1.00
4431;DHT22;2228;48.140;11.488;2023-01-24T09:19:16;3.00;1.00
4431;DHT22;2228;48.140;11.488;2023-01-24T09:21:43;3.00;1.00
4431;DHT22;2228;48.140;11.488;2023-01-24T09:24:14;3.00;1.00
4431;DHT22;2228;48.140;11.488;2023-01-24T09:26:43;3.00;1.00
4431;DHT22;2228;48.140;11.488;2023-01-24T09:29:10;2.90;1.00
4431;DHT22;2228;48.140;11.488;2023-01-24T09:31:37;2.90;1.00
4431;DHT22;2228;48.140;11.488;2023-01-24T09:34:04;2.90;1.00
4431;DHT22;2228;48.140;11.488;2023-01-24T09:36:31;2.90;1.00
4431;DHT22;2228;48.140;11.488;2023-01-24T09:38:59;3.00;1.00
4431;DHT22;2228;48.140;11.488;2023-01-24T09:41:39;3.00;1.00
4431;DHT22;2228;48.140;11.488;2023-01-24T09:44:16;3.00;1.00
4431;DHT22;2228;48.140;11.488;2023-01-24T09:46:49;3.10;1.00
4431;DHT22;2228;48.140;11.488;2023-01-24T09:49:22;3.10;1.00
4431;DHT22;2228;48.140;11.488;2023-01-24T09:51:54;3.20;1.00
4431;DHT22;2228;48.140;11.488;2023-01-24T09:54:28;3.20;1.00
4431;DHT22;2228;48.140;11.488;2023-01-24T09:56:58;3.20;1.00
4431;DHT22;2228;48.140;11.488;2023-01-24T09:59:32;3.20;1.00
4431;DHT22;2228;48.140;11.488;2023-01-24T10:02:01;3.20;1.00
4431;DHT22;2228;48.140;11.488;2023-01-24T10:04:31;3.20;1.00
4431;DHT22;2228;48.140;11.488;2023-01-24T10:07:44;3.20;1.00
4431;DHT22;2228;48.140;11.488;2023-01-24T10:10:25;3.10;1.00
4431;DHT22;2228;48.140;11.488;2023-01-24T10:13:07;3.10;1.00
4431;DHT22;2228;48.140;11.488;2023-01-24T10:15:42;3.10;1.00
4431;DHT22;2228;48.140;11.488;2023-01-24T10:18:24;3.10;1.00
4431;DHT22;2228;48.140;11.488;2023-01-24T10:21:19;3.20;1.00
4431;DHT22;2228;48.140;11.488;2023-01-24T10:23:53;3.10;1.00
4431;DHT22;2228;48.140;11.488;2023-01-24T10:26:25;3.10;1.00
4431;DHT22;2228;48.140;11.488;2023-01-24T10:29:06;3.10;1.00
4431;DHT22;2228;48.140;11.488;2023-01-24T10:31:38;3.20;1.00
4431;DHT22;2228;48.140;11.488;2023-01-24T10:34:11;3.20;1.00
4431;DHT22;2228;48.140;11.488;2023-01-24T10:36:41;3.20;1.00
4431;DHT22;2228;48.140;11.488;2023-01-24T10:39:09;3.30;1.00
4431;DHT22;2228;48.140;11.488;2023-01-24T10:41:37;3.20;1.00
4431;DHT22;2228;48.140;11.488;2023-01-24T10:44:12;3.20;1.00
4431;DHT22;2228;48.140;11.488;2023-01-24T10:49:50;3.10;1.00
4431;DHT22;2228;48.140;11.488;2023-01-24T10:52:18;3.20;1.00
4431;DHT22;2228;48.140;11.488;2023-01-24T10:54:48;3.20;1.00
4431;DHT22;2228;48.140;11.488;2023-01-24T10:57:38;3.10;1.00
4431;DHT22;2228;48.140;11.488;2023-01-24T11:03:19;3.20;1.00
4431;DHT22;2228;48.140;11.488;2023-01-24T11:05:50;3.30;1.00
4431;DHT22;2228;48.140;11.488;2023-01-24T11:08:19;3.30;1.00
4431;DHT22;2228;48.140;11.488;2023-01-24T11:10:51;3.30;1.00
4431;DHT22;2228;48.140;11.488;2023-01-24T11:13:26;3.30;1.00
4431;DHT22;2228;48.140;11.488;2023-01-24T11:16:06;3.40;1.00
4431;DHT22;2228;48.140;11.488;2023-01-24T11:18:35;3.30;1.00
4431;DHT22;2228;48.140;11.488;2023-01-24T11:21:14;3.30;1.00
4431;DHT22;2228;48.140;11.488;2023-01-24T11:23:42;3.30;1.00
4431;DHT22;2228;48.140;11.488;2023-01-24T11:26:22;3.30;1.00
4431;DHT22;2228;48.140;11.488;2023-01-24T11:28:57;3.40;1.00
4431;DHT22;2228;48.140;11.488;2023-01-24T11:31:28;3.30;1.00
4431;DHT22;2228;48.140;11.488;2023-01-24T11:34:16;3.30;1.00
4431;DHT22;2228;48.140;11.488;2023-01-24T11:36:55;3.30;1.00
4431;DHT22;2228;48.140;11.488;2023-01-24T11:39:32;3.20;1.00
4431;DHT22;2228;48.140;11.488;2023-01-24T11:42:05;3.10;1.00
4431;DHT22;2228;48.140;11.488;2023-01-24T11:44:52;3.20;1.00
4431;DHT22;2228;48.140;11.488;2023-01-24T11:47:28;3.10;1.00
4431;DHT22;2228;48.140;11.488;2023-01-24T11:50:09;3.20;1.00
4431;DHT22;2228;48.140;11.488;2023-01-24T11:52:52;3.20;1.00
4431;DHT22;2228;48.140;11.488;2023-01-24T11:55:34;3.30;1.00
4431;DHT22;2228;48.140;11.488;2023-01-24T11:58:28;3.30;1.00
4431;DHT22;2228;48.140;11.488;2023-01-24T12:01:10;3.30;1.00
4431;DHT22;2228;48.140;11.488;2023-01-24T12:04:22;3.40;1.00
4431;DHT22;2228;48.140;11.488;2023-01-24T12:06:57;3.40;1.00
4431;DHT22;2228;48.140;11.488;2023-01-24T12:09:29;3.40;1.00
4431;DHT22;2228;48.140;11.488;2023-01-24T12:12:05;3.40;1.00
4431;DHT22;2228;48.140;11.488;2023-01-24T12:14:51;3.40;1.00
4431;DHT22;2228;48.140;11.488;2023-01-24T12:20:53;3.40;1.00
4431;DHT22;2228;48.140;11.488;2023-01-24T12:23:29;3.30;1.00
4431;DHT22;2228;48.140;11.488;2023-01-24T12:26:03;3.30;1.00
4431;DHT22;2228;48.140;11.488;2023-01-24T12:28:35;3.30;1.00
4431;DHT22;2228;48.140;11.488;2023-01-24T12:31:06;3.40;1.00
4431;DHT22;2228;48.140;11.488;2023-01-24T12:33:39;3.50;1.00
4431;DHT22;2228;48.140;11.488;2023-01-24T12:36:13;3.60;1.00
4431;DHT22;2228;48.140;11.488;2023-01-24T12:38:46;3.60;1.00
4431;DHT22;2228;48.140;11.488;2023-01-24T12:41:24;3.50;1.00
4431;DHT22;2228;48.140;11.488;2023-01-24T12:43:58;3.40;1.00
4431;DHT22;2228;48.140;11.488;2023-01-24T12:46:32;3.40;1.00
4431;DHT22;2228;48.140;11.488;2023-01-24T12:49:18;3.40;1.00
4431;DHT22;2228;48.140;11.488;2023-01-24T12:51:51;3.50;1.00
4431;DHT22;2228;48.140;11.488;2023-01-24T12:54:27;3.40;1.00
4431;DHT22;2228;48.140;11.488;2023-01-24T12:56:59;3.40;1.00
4431;DHT22;2228;48.140;11.488;2023-01-24T12:59:30;3.50;1.00
4431;DHT22;2228;48.140;11.488;2023-01-24T13:02:22;3.50;1.00
4431;DHT22;2228;48.140;11.488;2023-01-24T13:05:00;3.60;1.00
4431;DHT22;2228;48.140;11.488;2023-01-24T13:07:37;3.60;1.00
4431;DHT22;2228;48.140;11.488;2023-01-24T13:10:15;3.60;1.00
4431;DHT22;2228;48.140;11.488;2023-01-24T13:12:44;3.50;1.00
4431;DHT22;2228;48.140;11.488;2023-01-24T13:15:17;3.50;1.00
4431;DHT22;2228;48.140;11.488;2023-01-24T13:18:07;3.50;1.00
4431;DHT22;2228;48.140;11.488;2023-01-24T13:20:55;3.50;1.00
4431;DHT22;2228;48.140;11.488;2023-01-24T13:26:40;3.40;1.00
4431;DHT22;2228;48.140;11.488;2023-01-24T13:29:19;3.50;1.00
4431;DHT22;2228;48.140;11.488;2023-01-24T13:31:55;3.50;1.00
4431;DHT22;2228;48.140;11.488;2023-01-24T13:34:29;3.60;1.00
4431;DHT22;2228;48.140;11.488;2023-01-24T13:36:57;3.70;1.00
4431;DHT22;2228;48.140;11.488;2023-01-24T13:39:31;3.70;1.00
4431;DHT22;2228;48.140;11.488;2023-01-24T13:42:05;3.60;1.00
4431;DHT22;2228;48.140;11.488;2023-01-24T13:44:33;3.60;1.00
4431;DHT22;2228;48.140;11.488;2023-01-24T13:47:25;3.50;1.00
4431;DHT22;2228;48.140;11.488;2023-01-24T13:52:50;3.50;1.00
4431;DHT22;2228;48.140;11.488;2023-01-24T13:58:29;3.50;1.00
4431;DHT22;2228;48.140;11.488;2023-01-24T14:01:01;3.50;1.00
4431;DHT22;2228;48.140;11.488;2023-01-24T14:03:31;3.50;1.00
4431;DHT22;2228;48.140;11.488;2023-01-24T14:06:10;3.50;1.00
4431;DHT22;2228;48.140;11.488;2023-01-24T14:08:41;3.50;1.00
4431;DHT22;2228;48.140;11.488;2023-01-24T14:11:24;3.50;1.00
4431;DHT22;2228;48.140;11.488;2023-01-24T14:14:00;3.50;1.00
4431;DHT22;2228;48.140;11.488;2023-01-24T14:16:58;3.50;1.00
4431;DHT22;2228;48.140;11.488;2023-01-24T14:19:28;3.50;1.00
4431;DHT22;2228;48.140;11.488;2023-01-24T14:22:01;3.50;1.00
4431;DHT22;2228;48.140;11.488;2023-01-24T14:24:34;3.60;1.00
4431;DHT22;2228;48.140;11.488;2023-01-24T14:27:16;3.60;1.00
4431;DHT22;2228;48.140;11.488;2023-01-24T14:29:47;3.50;1.00
4431;DHT22;2228;48.140;11.488;2023-01-24T14:32:20;3.40;1.00
4431;DHT22;2228;48.140;11.488;2023-01-24T14:34:51;3.30;1.00
4431;DHT22;2228;48.140;11.488;2023-01-24T14:37:20;3.30;1.00
4431;DHT22;2228;48.140;11.488;2023-01-24T14:39:47;3.30;1.00
4431;DHT22;2228;48.140;11.488;2023-01-24T14:42:15;3.30;1.00
4431;DHT22;2228;48.140;11.488;2023-01-24T14:44:52;3.20;1.00
4431;DHT22;2228;48.140;11.488;2023-01-24T14:47:21;3.20;1.00
4431;DHT22;2228;48.140;11.488;2023-01-24T14:49:50;3.20;1.00
4431;DHT22;2228;48.140;11.488;2023-01-24T14:52:19;3.20;1.00
4431;DHT22;2228;48.140;11.488;2023-01-24T14:54:48;3.20;1.00
4431;DHT22;2228;48.140;11.488;2023-01-24T14:57:20;3.20;1.00
4431;DHT22;2228;48.140;11.488;2023-01-24T15:00:00;3.10;1.00
4431;DHT22;2228;48.140;11.488;2023-01-24T15:02:28;3.00;1.00
4431;DHT22;2228;48.140;11.488;2023-01-24T15:04:55;3.10;1.00
4431;DHT22;2228;48.140;11.488;2023-01-24T15:07:22;3.10;1.00
4431;DHT22;2228;48.140;11.488;2023-01-24T15:09:50;3.10;1.00
4431;DHT22;2228;48.140;11.488;2023-01-24T15:12:26;3.10;1.00
4431;DHT22;2228;48.140;11.488;2023-01-24T15:14:55;3.10;1.00
4431;DHT22;2228;48.140;11.488;2023-01-24T15:17:27;3.10;1.00
4431;DHT22;2228;48.140;11.488;2023-01-24T15:19:56;3.10;1.00
4431;DHT22;2228;48.140;11.488;2023-01-24T15:22:26;3.20;1.00
4431;DHT22;2228;48.140;11.488;2023-01-24T15:24:56;3.20;1.00
4431;DHT22;2228;48.140;11.488;2023-01-24T15:27:35;3.20;1.00
4431;DHT22;2228;48.140;11.488;2023-01-24T15:30:20;3.10;1.00
4431;DHT22;2228;48.140;11.488;2023-01-24T15:32:50;3.20;1.00
4431;DHT22;2228;48.140;11.488;2023-01-24T15:35:31;3.20;1.00
4431;DHT22;2228;48.140;11.488;2023-01-24T15:38:20;3.20;1.00
4431;DHT22;2228;48.140;11.488;2023-01-24T15:43:39;3.10;1.00
4431;DHT22;2228;48.140;11.488;2023-01-24T15:46:23;3.10;1.00
4431;DHT22;2228;48.140;11.488;2023-01-24T15:49:31;3.10;1.00
4431;DHT22;2228;48.140;11.488;2023-01-24T15:52:12;3.10;1.00
4431;DHT22;2228;48.140;11.488;2023-01-24T15:54:40;3.00;1.00
4431;DHT22;2228;48.140;11.488;2023-01-24T15:57:16;3.00;1.00
4431;DHT22;2228;48.140;11.488;2023-01-24T15:59:45;3.00;16.00
4431;DHT22;2228;48.140;11.488;2023-01-24T16:02:14;3.10;1.00
4431;DHT22;2228;48.140;11.488;2023-01-24T16:04:43;3.10;1.00
4431;DHT22;2228;48.140;11.488;2023-01-24T16:07:11;3.00;1.00
4431;DHT22;2228;48.140;11.488;2023-01-24T16:09:38;3.10;1.00
4431;DHT22;2228;48.140;11.488;2023-01-24T16:12:05;3.10;1.00
4431;DHT22;2228;48.140;11.488;2023-01-24T16:14:35;3.00;1.00
4431;DHT22;2228;48.140;11.488;2023-01-24T16:17:03;3.00;1.00
4431;DHT22;2228;48.140;11.488;2023-01-24T16:19:31;3.10;1.00
4431;DHT22;2228;48.140;11.488;2023-01-24T16:22:03;3.00;1.00
4431;DHT22;2228;48.140;11.488;2023-01-24T16:24:30;3.10;1.00
4431;DHT22;2228;48.140;11.488;2023-01-24T16:26:57;3.00;1.00
4431;DHT22;2228;48.140;11.488;2023-01-24T16:29:31;3.00;1.00
4431;DHT22;2228;48.140;11.488;2023-01-24T16:31:59;3.00;1.00
4431;DHT22;2228;48.140;11.488;2023-01-24T16:34:26;3.00;1.00
4431;DHT22;2228;48.140;11.488;2023-01-24T16:36:53;3.00;1.00
4431;DHT22;2228;48.140;11.488;2023-01-24T16:39:22;3.00;1.00
4431;DHT22;2228;48.140;11.488;2023-01-24T16:41:50;3.00;1.00
4431;DHT22;2228;48.140;11.488;2023-01-24T16:44:17;3.10;1.00
4431;DHT22;2228;48.140;11.488;2023-01-24T16:46:48;3.00;1.00
4431;DHT22;2228;48.140;11.488;2023-01-24T16:49:15;3.00;1.00
4431;DHT22;2228;48.140;11.488;2023-01-24T16:51:43;3.10;1.00
4431;DHT22;2228;48.140;11.488;2023-01-24T16:54:10;3.10;1.00
4431;DHT22;2228;48.140;11.488;2023-01-24T16:56:38;3.10;1.00
4431;DHT22;2228;48.140;11.488;2023-01-24T16:59:08;3.10;1.00
4431;DHT22;2228;48.140;11.488;2023-01-24T17:01:34;3.10;1.00
4431;DHT22;2228;48.140;11.488;2023-01-24T17:04:01;3.00;1.00